Terminal Aerodrome Forecast
Issued by NWS

Home | Current Version | Previous Version | Text Only | Print | Product List | Glossary On
Versions: 1 2 3 4 5 6 7 8 9 10 11 12 13 14 15 16 17 18 19 20 21 22 23 24 25 26 27 28 29 30 31 32 33 34 35 36 37 38 39 40 41 42 43 44 45 46 47 48
000
FTUS45 KBOI 211720
TAFMYL
TAF
KMYL 211720Z 2118/2218 VRB02KT P6SM BKN025 OVC060
     FM212000 33011KT P6SM BKN050
     FM220200 33007KT P6SM VCSH OVC040
     FM220500 34006KT 6SM -SHRA BR OVC020
     FM221300 33007KT 2SM -SHRA BR OVC015
     FM221600 33006KT P6SM OVC015=

USA.gov is the U.S. government's official web portal to all federal, state and local government web resources and services.